Aérodrome :
LOGIN :

S'inscrire | Disclaimer

   EN    FR    IT 

 










Légende :    VFR   VFR Marginal   IFR   IFR Intensif   IFR Très Intensif
Visi : 
Plafond : 
>= 8 km
>= 3000ft
5 à 8 km
1000 à 3000 ft
1500m à 5 km
500 à 1000 ft
800 à 1500m
200 à 500 ft
< 800m
< 200 ft
Symboles :   Orages  Brouillard  Fortes neiges  Fortes précipitations  Vent > 20 kt
SIGMETs :   Divers  Orages  Givrage  Turbulence  Onde Orograph.  Cendres Volcan.







- Altitude de l'aérodrome : 505 ft
- Code IATA : SXB
- Voir les cartes d'approche


LFST - Strasbourg

DERNIER METAR :
  • 172300Z AUTO 29003KT CAVOK 18/17 Q1017 TEMPO 4000 BR

METARs EXPIRÉS :
  • 172230Z AUTO VRB03KT 9999 ///TCU 20/17 Q1017 TEMPO 4000 BR BECMG NSC
  • 172200Z AUTO 13004KT 9999 ///CB 20/18 Q1017 BECMG NSC
  • 172130Z AUTO VRB04KT 9999 ///CB 19/18 Q1017 BECMG NSC
  • 172100Z AUTO 21006KT 9999 TS ///CB 19/17 Q1017 BECMG NSW NSC
  • 172030Z AUTO 33006KT 9999 TS ///CB 19/18 Q1017 BECMG NSW NSC

TAF AMD TAF LFST
Valide du 17 à 22h jusqu'au 18 à 18h UTC


172205Z 1722/1818 16004KT 9999 FEW060CB
BECMG 1722/1724 CAVOK
PROB30
TEMPO 1800/1806 4000 BR
BECMG 1807/1809 02005KT
TEMPO 1809/1814 FEW060CB
Pas de NOTAMs connus pour ce terrain.



MET'MAP, la Météo Aéronautique d'un coup d'oeil ! - Copyright ORBIFLY Décembre 2007 - Disclaimer

ORBIFLY MET'MAP TEAM :

Programmation & Développement : Alexandra Zaïnal
Conception & Développement : Baudouin d'Aumeries
Co-Programmation & Développement : Marc-Olivier Méhu
Soutien technique & logistique : Manuel Goepfert

Contact : metmap@orbifly.com




SOURCES & CREDITS :

   NOAA